
Distance (Route):
Temperature : -13.9°C
Humidity : 5.1%
Pressure : 0hPa| Receiver | Frames | First received | Last received |
|---|---|---|---|
| LZ4TU-5 | 92 | 2026-09-01 05:35:20 | 2026-09-01 06:48:19 |
| Receiver | Date | Latitude | Longitude | Direction | Speed | Altitude | Climb | Temperature | Humidity | Pressure | Voltage | Killtimer | Uptime | BKT | XDATA |
|---|---|---|---|---|---|---|---|---|---|---|---|---|---|---|---|
| LZ4TU-5 | 2026-09-01 06:48:19 | 43.22790 | 20.76218 | 103° | 46km/h | 6888m | -17.9m/s | -13.9°C | 5.1% | 0hPa | 0V | 00:00:00 | 00:00:00 | 00:00:00 | |
| LZ4TU-5 | 2026-09-01 06:48:15 | 43.22800 | 20.76151 | 103° | 49km/h | 6958m | -17.7m/s | -14.3°C | 5.5% | 0hPa | 0V | 00:00:00 | 00:00:00 | 00:00:00 | |
| LZ4TU-5 | 2026-09-01 06:46:42 | 43.23153 | 20.74158 | 104° | 75km/h | 8776m | -20.6m/s | -28.3°C | 16.2% | 0hPa | 0V | 00:00:00 | 00:00:00 | 00:00:00 | |
| LZ4TU-5 | 2026-09-01 06:46:37 | 43.23174 | 20.74031 | 103° | 77km/h | 8880m | -20.6m/s | -29.2°C | 15.1% | 0hPa | 0V | 00:00:00 | 00:00:00 | 00:00:00 | |
| LZ4TU-5 | 2026-09-01 06:44:51 | 43.23401 | 20.70296 | 93° | 122km/h | 11096m | -23.0m/s | -45.2°C | 24.2% | 0hPa | 0V | 00:00:00 | 00:00:00 | 00:00:00 | |
| LZ4TU-5 | 2026-09-01 06:44:47 | 43.23406 | 20.70085 | 92° | 120km/h | 11189m | -22.8m/s | -45.9°C | 24.2% | 0hPa | 0V | 00:00:00 | 00:00:00 | 00:00:00 | |
| LZ4TU-5 | 2026-09-01 06:41:35 | 43.23522 | 20.63918 | 71° | 40km/h | 16146m | -31.7m/s | -60.3°C | 0.0% | 0hPa | 0V | 00:00:00 | 00:00:00 | 00:00:00 | |
| LZ4TU-5 | 2026-09-01 06:41:30 | 43.23508 | 20.63845 | 81° | 47km/h | 16304m | -31.4m/s | -59.7°C | 0.0% | 0hPa | 0V | 00:00:00 | 00:00:00 | 00:00:00 | |
| LZ4TU-5 | 2026-09-01 06:39:59 | 43.23397 | 20.62786 | 71° | 26km/h | 19422m | -38.8m/s | -56.6°C | 0.0% | 0hPa | 0V | 00:00:00 | 00:00:00 | 00:00:00 | |
| LZ4TU-5 | 2026-09-01 06:39:55 | 43.23388 | 20.62759 | 42° | 18km/h | 19575m | -39.5m/s | -55.2°C | 0.0% | 0hPa | 0V | 00:00:00 | 00:00:00 | 00:00:00 | |
| LZ4TU-5 | 2026-09-01 06:39:42 | 43.23348 | 20.62702 | 114° | 7km/h | 20078m | -40.7m/s | -53.1°C | 0.0% | 0hPa | 0V | 00:00:00 | 00:00:00 | 00:00:00 | |
| LZ4TU-5 | 2026-09-01 06:37:41 | 43.23309 | 20.62906 | 319° | 13km/h | 26265m | -69.8m/s | -46.6°C | 0.2% | 0hPa | 0V | 00:00:00 | 00:00:00 | 00:00:00 | |
| LZ4TU-5 | 2026-09-01 06:37:36 | 43.23297 | 20.62912 | 13° | 15km/h | 26596m | -71.7m/s | -45.3°C | 0.1% | 0hPa | 0V | 00:00:00 | 00:00:00 | 00:00:00 | |
| LZ4TU-5 | 2026-09-01 06:36:07 | 43.23303 | 20.63188 | 301° | 11km/h | 30607m | 6.8m/s | -41.9°C | 1.6% | 0hPa | 0V | 00:00:00 | 00:00:00 | 00:00:00 | |
| LZ4TU-5 | 2026-09-01 06:36:02 | 43.23318 | 20.63184 | 178° | 16km/h | 30573m | 6.5m/s | -41.9°C | 1.6% | 0hPa | 0V | 00:00:00 | 00:00:00 | 00:00:00 | |
| LZ4TU-5 | 2026-09-01 06:34:28 | 43.23206 | 20.63577 | 252° | 15km/h | 29933m | 5.6m/s | -43.6°C | 1.9% | 0hPa | 0V | 00:00:00 | 00:00:00 | 00:00:00 | |
| LZ4TU-5 | 2026-09-01 06:34:23 | 43.23199 | 20.63591 | 314° | 15km/h | 29898m | 8.1m/s | -43.4°C | 1.8% | 0hPa | 0V | 00:00:00 | 00:00:00 | 00:00:00 | |
| LZ4TU-5 | 2026-09-01 06:32:51 | 43.23016 | 20.64135 | 296° | 9km/h | 29289m | 6.6m/s | -43.1°C | 1.4% | 0hPa | 0V | 00:00:00 | 00:00:00 | 00:00:00 | |
| LZ4TU-5 | 2026-09-01 06:32:46 | 43.22985 | 20.64127 | 358° | 47km/h | 29256m | 7.5m/s | -43.4°C | 1.5% | 0hPa | 0V | 00:00:00 | 00:00:00 | 00:00:00 | |
| LZ4TU-5 | 2026-09-01 06:31:07 | 43.22812 | 20.64522 | 15° | 22km/h | 28562m | 6.1m/s | -45.2°C | 1.6% | 0hPa | 0V | 00:00:00 | 00:00:00 | 00:00:00 | |
| LZ4TU-5 | 2026-09-01 06:31:03 | 43.22782 | 20.64513 | 13° | 31km/h | 28533m | 6.9m/s | -45.0°C | 1.6% | 0hPa | 0V | 00:00:00 | 00:00:00 | 00:00:00 | |
| LZ4TU-5 | 2026-09-01 06:29:33 | 43.22677 | 20.64644 | 39° | 11km/h | 27923m | 8.8m/s | -45.6°C | 1.3% | 0hPa | 0V | 00:00:00 | 00:00:00 | 00:00:00 | |
| LZ4TU-5 | 2026-09-01 06:29:28 | 43.22658 | 20.64649 | 320° | 18km/h | 27889m | 7.4m/s | -45.5°C | 0% | 0hPa | 0V | 00:00:00 | 00:00:00 | 00:00:00 | |
| LZ4TU-5 | 2026-09-01 06:27:54 | 43.22668 | 20.64507 | 94° | 33km/h | 27269m | 4.4m/s | -45.8°C | 1.2% | 0hPa | 0V | 00:00:00 | 00:00:00 | 00:00:00 | |
| LZ4TU-5 | 2026-09-01 06:27:49 | 43.22675 | 20.64489 | 288° | 5km/h | 27234m | 8.4m/s | -45.9°C | 1.2% | 0hPa | 0V | 00:00:00 | 00:00:00 | 00:00:00 | |
| LZ4TU-5 | 2026-09-01 06:26:18 | 43.22288 | 20.64323 | 333° | 26km/h | 26622m | 6.2m/s | -46.2°C | 0.9% | 0hPa | 0V | 00:00:00 | 00:00:00 | 00:00:00 | |
| LZ4TU-5 | 2026-09-01 06:26:13 | 43.22258 | 20.64359 | 325° | 33km/h | 26591m | 4.7m/s | -46.5°C | 1.0% | 0hPa | 0V | 00:00:00 | 00:00:00 | 00:00:00 | |
| LZ4TU-5 | 2026-09-01 06:24:40 | 43.22051 | 20.64708 | 299° | 11km/h | 25974m | 4.9m/s | -48.4°C | 0.9% | 0hPa | 0V | 00:00:00 | 00:00:00 | 00:00:00 | |
| LZ4TU-5 | 2026-09-01 06:24:36 | 43.22054 | 20.64739 | 251° | 35km/h | 25947m | 6.2m/s | -48.5°C | 0.9% | 0hPa | 0V | 00:00:00 | 00:00:00 | 00:00:00 | |
| LZ4TU-5 | 2026-09-01 06:24:31 | 43.22062 | 20.64760 | 145° | 11km/h | 25913m | 7.2m/s | -48.8°C | 1.1% | 0hPa | 0V | 00:00:00 | 00:00:00 | 00:00:00 | |
| LZ4TU-5 | 2026-09-01 06:23:00 | 43.22187 | 20.64861 | 326° | 22km/h | 25319m | 4.3m/s | -48.8°C | 0.9% | 0hPa | 0V | 00:00:00 | 00:00:00 | 00:00:00 | |
| LZ4TU-5 | 2026-09-01 06:22:55 | 43.22187 | 20.64880 | 250° | 11km/h | 25284m | 8.9m/s | -49.0°C | 1.0% | 0hPa | 0V | 00:00:00 | 00:00:00 | 00:00:00 | |
| LZ4TU-5 | 2026-09-01 06:21:27 | 43.22352 | 20.65264 | 171° | 13km/h | 24700m | 4.4m/s | -49.4°C | 0.8% | 0hPa | 0V | 00:00:00 | 00:00:00 | 00:00:00 | |
| LZ4TU-5 | 2026-09-01 06:21:22 | 43.22371 | 20.65258 | 173° | 27km/h | 24665m | 5.4m/s | -49.6°C | 0.9% | 0hPa | 0V | 00:00:00 | 00:00:00 | 00:00:00 | |
| LZ4TU-5 | 2026-09-01 06:19:53 | 43.22508 | 20.65318 | 248° | 7km/h | 24094m | 5.7m/s | -50.4°C | 0.8% | 0hPa | 0V | 00:00:00 | 00:00:00 | 00:00:00 | |
| LZ4TU-5 | 2026-09-01 06:18:21 | 43.22417 | 20.65675 | 205° | 16km/h | 23514m | 8.2m/s | -51.4°C | 0.5% | 0hPa | 0V | 00:00:00 | 00:00:00 | 00:00:00 | |
| LZ4TU-5 | 2026-09-01 06:18:16 | 43.22433 | 20.65703 | 282° | 16km/h | 23484m | 6.5m/s | -51.3°C | 0.4% | 0hPa | 0V | 00:00:00 | 00:00:00 | 00:00:00 | |
| LZ4TU-5 | 2026-09-01 06:16:48 | 43.22416 | 20.66126 | 268° | 11km/h | 22934m | 6.9m/s | -53.2°C | 0.6% | 0hPa | 0V | 00:00:00 | 00:00:00 | 00:00:00 | |
| LZ4TU-5 | 2026-09-01 06:16:43 | 43.22416 | 20.66138 | 273° | 16km/h | 22903m | 5.5m/s | -53.3°C | 0% | 0hPa | 0V | 00:00:00 | 00:00:00 | 00:00:00 | |
| LZ4TU-5 | 2026-09-01 06:15:14 | 43.22446 | 20.66150 | 140° | 22km/h | 22367m | 7.6m/s | -54.6°C | 0.3% | 0hPa | 0V | 00:00:00 | 00:00:00 | 00:00:00 | |
| LZ4TU-5 | 2026-09-01 06:13:42 | 43.22444 | 20.65965 | 4° | 11km/h | 21824m | 5.2m/s | -54.8°C | 0.2% | 0hPa | 0V | 00:00:00 | 00:00:00 | 00:00:00 | |
| LZ4TU-5 | 2026-09-01 06:13:38 | 43.22422 | 20.65954 | 19° | 27km/h | 21798m | 6.6m/s | -54.8°C | 0.2% | 0hPa | 0V | 00:00:00 | 00:00:00 | 00:00:00 | |
| LZ4TU-5 | 2026-09-01 06:13:33 | 43.22399 | 20.65947 | 10° | 13km/h | 21769m | 6.8m/s | -55.0°C | 0.3% | 0hPa | 0V | 00:00:00 | 00:00:00 | 00:00:00 | |
| LZ4TU-5 | 2026-09-01 06:12:05 | 43.22055 | 20.66264 | 298° | 16km/h | 21245m | 5.9m/s | -55.7°C | 0.2% | 0hPa | 0V | 00:00:00 | 00:00:00 | 00:00:00 | |
| LZ4TU-5 | 2026-09-01 06:12:00 | 43.22055 | 20.66284 | 250° | 16km/h | 21217m | 4.5m/s | -55.5°C | 0.2% | 0hPa | 0V | 00:00:00 | 00:00:00 | 00:00:00 | |
| LZ4TU-5 | 2026-09-01 06:10:25 | 43.21981 | 20.66613 | 181° | 9km/h | 20665m | 7.0m/s | -55.4°C | 0.4% | 0hPa | 0V | 00:00:00 | 00:00:00 | 00:00:00 | |
| LZ4TU-5 | 2026-09-01 06:10:21 | 43.21983 | 20.66619 | 268° | 11km/h | 20642m | 5.7m/s | -55.4°C | 0% | 0hPa | 0V | 00:00:00 | 00:00:00 | 00:00:00 | |
| LZ4TU-5 | 2026-09-01 06:08:51 | 43.22103 | 20.66557 | 55° | 22km/h | 20098m | 6.5m/s | -54.4°C | 0.3% | 0hPa | 0V | 00:00:00 | 00:00:00 | 00:00:00 | |
| LZ4TU-5 | 2026-09-01 06:08:46 | 43.22093 | 20.66544 | 34° | 16km/h | 20070m | 5.3m/s | -54.4°C | 0.2% | 0hPa | 0V | 00:00:00 | 00:00:00 | 00:00:00 | |
| LZ4TU-5 | 2026-09-01 06:07:12 | 43.21749 | 20.66123 | 91° | 42km/h | 19531m | 4.1m/s | -57.0°C | 0.4% | 0hPa | 0V | 00:00:00 | 00:00:00 | 00:00:00 | |
| LZ4TU-5 | 2026-09-01 06:07:07 | 43.21740 | 20.66047 | 72° | 40km/h | 19502m | 6.5m/s | -57.3°C | 0.5% | 0hPa | 0V | 00:00:00 | 00:00:00 | 00:00:00 | |
| LZ4TU-5 | 2026-09-01 06:05:33 | 43.21397 | 20.65306 | 35° | 11km/h | 18971m | 5.9m/s | -59.6°C | 0.4% | 0hPa | 0V | 00:00:00 | 00:00:00 | 00:00:00 | |
| LZ4TU-5 | 2026-09-01 06:05:28 | 43.21380 | 20.65295 | 18° | 16km/h | 18943m | 6.2m/s | -59.5°C | 0.3% | 0hPa | 0V | 00:00:00 | 00:00:00 | 00:00:00 | |
| LZ4TU-5 | 2026-09-01 06:03:52 | 43.21350 | 20.64904 | 78° | 22km/h | 18397m | 5.9m/s | -57.2°C | 0% | 0hPa | 0V | 00:00:00 | 00:00:00 | 00:00:00 | |
| LZ4TU-5 | 2026-09-01 06:03:47 | 43.21361 | 20.64876 | 141° | 24km/h | 18371m | 5.0m/s | -57.0°C | 0.9% | 0hPa | 0V | 00:00:00 | 00:00:00 | 00:00:00 | |
| LZ4TU-5 | 2026-09-01 06:02:19 | 43.21355 | 20.63919 | 71° | 51km/h | 17877m | 5.7m/s | -55.9°C | 1.1% | 0hPa | 0V | 00:00:00 | 00:00:00 | 00:00:00 | |
| LZ4TU-5 | 2026-09-01 06:02:15 | 43.21345 | 20.63851 | 94° | 44km/h | 17856m | 4.5m/s | -56.1°C | 1.2% | 0hPa | 0V | 00:00:00 | 00:00:00 | 00:00:00 | |
| LZ4TU-5 | 2026-09-01 06:00:37 | 43.21167 | 20.62149 | 75° | 73km/h | 17309m | 4.9m/s | -59.5°C | 1.7% | 0hPa | 0V | 00:00:00 | 00:00:00 | 00:00:00 | |
| LZ4TU-5 | 2026-09-01 06:00:33 | 43.21156 | 20.62066 | 85° | 47km/h | 17286m | 6.6m/s | -59.5°C | 1.7% | 0hPa | 0V | 00:00:00 | 00:00:00 | 00:00:00 | |
| LZ4TU-5 | 2026-09-01 05:59:06 | 43.20850 | 20.60677 | 81° | 44km/h | 16811m | 5.2m/s | -60.7°C | 2.4% | 0hPa | 0V | 00:00:00 | 00:00:00 | 00:00:00 | |
| LZ4TU-5 | 2026-09-01 05:59:02 | 43.20840 | 20.60627 | 80° | 38km/h | 16787m | 6.5m/s | -60.5°C | 2.3% | 0hPa | 0V | 00:00:00 | 00:00:00 | 00:00:00 | |
| LZ4TU-5 | 2026-09-01 05:57:34 | 43.20558 | 20.59185 | 90° | 26km/h | 16288m | 4.9m/s | -60.9°C | 3.7% | 0hPa | 0V | 00:00:00 | 00:00:00 | 00:00:00 | |
| LZ4TU-5 | 2026-09-01 05:57:29 | 43.20554 | 20.59124 | 79° | 40km/h | 16261m | 4.7m/s | -60.7°C | 3.7% | 0hPa | 0V | 00:00:00 | 00:00:00 | 00:00:00 | |
| LZ4TU-5 | 2026-09-01 05:56:01 | 43.20384 | 20.58351 | 117° | 35km/h | 15703m | 6.0m/s | -59.7°C | 5.4% | 0hPa | 0V | 00:00:00 | 00:00:00 | 00:00:00 | |
| LZ4TU-5 | 2026-09-01 05:55:57 | 43.20401 | 20.58302 | 108° | 40km/h | 15677m | 5.2m/s | -59.9°C | 5.5% | 0hPa | 0V | 00:00:00 | 00:00:00 | 00:00:00 | |
| LZ4TU-5 | 2026-09-01 05:54:30 | 43.20757 | 20.56810 | 89° | 51km/h | 15201m | 5.2m/s | -60.3°C | 9.3% | 0hPa | 0V | 00:00:00 | 00:00:00 | 00:00:00 | |
| LZ4TU-5 | 2026-09-01 05:52:55 | 43.20738 | 20.54539 | 96° | 89km/h | 14638m | 7.3m/s | -62.5°C | 12.7% | 0hPa | 0V | 00:00:00 | 00:00:00 | 00:00:00 | |
| LZ4TU-5 | 2026-09-01 05:52:50 | 43.20752 | 20.54369 | 94° | 108km/h | 14604m | 6.6m/s | -62.7°C | 13.1% | 0hPa | 0V | 00:00:00 | 00:00:00 | 00:00:00 | |
| LZ4TU-5 | 2026-09-01 05:51:16 | 43.20564 | 20.51369 | 96° | 88km/h | 14082m | 3.4m/s | -61.3°C | 17.6% | 0hPa | 0V | 00:00:00 | 00:00:00 | 00:00:00 | |
| LZ4TU-5 | 2026-09-01 05:51:11 | 43.20570 | 20.51208 | 89° | 95km/h | 14059m | 4.2m/s | -61.1°C | 0% | 0hPa | 0V | 00:00:00 | 00:00:00 | 00:00:00 | |
| LZ4TU-5 | 2026-09-01 05:49:42 | 43.20707 | 20.48262 | 87° | 97km/h | 13527m | 8.7m/s | -61.7°C | 22.6% | 0hPa | 0V | 00:00:00 | 00:00:00 | 00:00:00 | |
| LZ4TU-5 | 2026-09-01 05:49:37 | 43.20711 | 20.48096 | 98° | 104km/h | 13497m | 7.1m/s | -61.4°C | 22.8% | 0hPa | 0V | 00:00:00 | 00:00:00 | 00:00:00 | |
| LZ4TU-5 | 2026-09-01 05:48:08 | 43.20938 | 20.44692 | 101° | 111km/h | 12888m | 5.3m/s | -59.7°C | 26.5% | 0hPa | 0V | 00:00:00 | 00:00:00 | 00:00:00 | |
| LZ4TU-5 | 2026-09-01 05:48:03 | 43.20971 | 20.44496 | 99° | 119km/h | 12851m | 8.5m/s | -59.5°C | 26.4% | 0hPa | 0V | 00:00:00 | 00:00:00 | 00:00:00 | |
| LZ4TU-5 | 2026-09-01 05:46:37 | 43.21365 | 20.40845 | 99° | 117km/h | 12344m | 4.2m/s | -55.4°C | 21.5% | 0hPa | 0V | 00:00:00 | 00:00:00 | 00:00:00 | |
| LZ4TU-5 | 2026-09-01 05:46:33 | 43.21373 | 20.40679 | 91° | 128km/h | 12318m | 6.7m/s | -55.1°C | 21.4% | 0hPa | 0V | 00:00:00 | 00:00:00 | 00:00:00 | |
| LZ4TU-5 | 2026-09-01 05:45:06 | 43.21560 | 20.36963 | 96° | 122km/h | 11817m | 7.0m/s | -51.3°C | 22.4% | 0hPa | 0V | 00:00:00 | 00:00:00 | 00:00:00 | |
| LZ4TU-5 | 2026-09-01 05:45:01 | 43.21576 | 20.36751 | 97° | 117km/h | 11784m | 7.1m/s | -51.1°C | 22.1% | 0hPa | 0V | 00:00:00 | 00:00:00 | 00:00:00 | |
| LZ4TU-5 | 2026-09-01 05:43:23 | 43.21729 | 20.32780 | 91° | 126km/h | 11248m | 6.2m/s | -46.6°C | 19.2% | 0hPa | 0V | 00:00:00 | 00:00:00 | 00:00:00 | |
| LZ4TU-5 | 2026-09-01 05:43:18 | 43.21734 | 20.32557 | 96° | 111km/h | 11225m | 5.3m/s | -46.4°C | 19.3% | 0hPa | 0V | 00:00:00 | 00:00:00 | 00:00:00 | |
| LZ4TU-5 | 2026-09-01 05:43:13 | 43.21736 | 20.32371 | 92° | 119km/h | 11199m | 7.3m/s | -46.4°C | 19.4% | 0hPa | 0V | 00:00:00 | 00:00:00 | 00:00:00 | |
| LZ4TU-5 | 2026-09-01 05:41:45 | 43.21875 | 20.28730 | 96° | 113km/h | 10692m | 4.7m/s | -42.6°C | 15.5% | 0hPa | 0V | 00:00:00 | 00:00:00 | 00:00:00 | |
| LZ4TU-5 | 2026-09-01 05:41:40 | 43.21892 | 20.28545 | 92° | 104km/h | 10666m | 5.1m/s | -42.4°C | 15.6% | 0hPa | 0V | 00:00:00 | 00:00:00 | 00:00:00 | |
| LZ4TU-5 | 2026-09-01 05:40:14 | 43.21989 | 20.25201 | 95° | 93km/h | 10175m | 3.7m/s | -39.0°C | 16.4% | 0hPa | 0V | 00:00:00 | 00:00:00 | 00:00:00 | |
| LZ4TU-5 | 2026-09-01 05:40:09 | 43.21998 | 20.25044 | 94° | 126km/h | 10153m | 6.0m/s | -38.8°C | 16.4% | 0hPa | 0V | 00:00:00 | 00:00:00 | 00:00:00 | |
| LZ4TU-5 | 2026-09-01 05:38:42 | 43.22066 | 20.21876 | 90° | 102km/h | 9683m | 4.2m/s | -34.9°C | 12.6% | 0hPa | 0V | 00:00:00 | 00:00:00 | 00:00:00 | |
| LZ4TU-5 | 2026-09-01 05:38:37 | 43.22075 | 20.21701 | 98° | 104km/h | 9661m | 3.3m/s | -34.8°C | 12.2% | 0hPa | 0V | 00:00:00 | 00:00:00 | 00:00:00 | |
| LZ4TU-5 | 2026-09-01 05:37:02 | 43.22251 | 20.18460 | 100° | 89km/h | 9152m | 5.6m/s | -31.8°C | 10.4% | 0hPa | 0V | 00:00:00 | 00:00:00 | 00:00:00 | |
| LZ4TU-5 | 2026-09-01 05:36:58 | 43.22266 | 20.18344 | 104° | 91km/h | 9134m | 3.2m/s | -31.7°C | 10.5% | 0hPa | 0V | 00:00:00 | 00:00:00 | 00:00:00 | |
| LZ4TU-5 | 2026-09-01 05:35:30 | 43.22535 | 20.15949 | 98° | 77km/h | 8676m | 6.9m/s | -28.8°C | 16.5% | 0hPa | 0V | 00:00:00 | 00:00:00 | 00:00:00 | |
| LZ4TU-5 | 2026-09-01 05:35:25 | 43.22547 | 20.15839 | 106° | 66km/h | 8643m | 6.1m/s | -28.7°C | 17.5% | 0hPa | 0V | 00:00:00 | 00:00:00 | 00:00:00 | |
| LZ4TU-5 | 2026-09-01 05:35:20 | 43.22566 | 20.15695 | 95° | 78km/h | 8613m | 6.2m/s | -28.6°C | 18.9% | 0hPa | 0V | 00:00:00 | 00:00:00 | 00:00:00 |